sensor_id;sensor_type;location;lat;lon;timestamp;temperature;humidity
20759;DHT22;10539;53.686;9.158;2023-05-07T00:01:41;11.00;99.90
20759;DHT22;10539;53.686;9.158;2023-05-07T00:04:07;11.00;99.90
20759;DHT22;10539;53.686;9.158;2023-05-07T00:06:33;10.90;99.90
20759;DHT22;10539;53.686;9.158;2023-05-07T00:08:58;10.90;99.90
20759;DHT22;10539;53.686;9.158;2023-05-07T00:11:25;10.90;99.90
20759;DHT22;10539;53.686;9.158;2023-05-07T00:13:51;10.90;99.90
20759;DHT22;10539;53.686;9.158;2023-05-07T00:16:17;10.90;99.90
20759;DHT22;10539;53.686;9.158;2023-05-07T00:18:43;10.90;99.90
20759;DHT22;10539;53.686;9.158;2023-05-07T00:21:09;10.90;99.90
20759;DHT22;10539;53.686;9.158;2023-05-07T00:23:35;10.80;99.90
20759;DHT22;10539;53.686;9.158;2023-05-07T00:26:01;10.80;99.90
20759;DHT22;10539;53.686;9.158;2023-05-07T00:28:26;10.80;99.90
20759;DHT22;10539;53.686;9.158;2023-05-07T00:30:52;10.80;99.90
20759;DHT22;10539;53.686;9.158;2023-05-07T00:33:18;10.80;99.90
20759;DHT22;10539;53.686;9.158;2023-05-07T00:35:45;10.80;99.90
20759;DHT22;10539;53.686;9.158;2023-05-07T00:38:11;10.80;99.90
20759;DHT22;10539;53.686;9.158;2023-05-07T00:40:37;10.80;99.90
20759;DHT22;10539;53.686;9.158;2023-05-07T00:43:02;10.80;99.90
20759;DHT22;10539;53.686;9.158;2023-05-07T00:45:29;10.80;99.90
20759;DHT22;10539;53.686;9.158;2023-05-07T00:47:59;10.70;99.90
20759;DHT22;10539;53.686;9.158;2023-05-07T00:50:26;10.70;99.90
20759;DHT22;10539;53.686;9.158;2023-05-07T00:52:53;10.70;99.90
20759;DHT22;10539;53.686;9.158;2023-05-07T00:55:20;10.60;99.90
20759;DHT22;10539;53.686;9.158;2023-05-07T00:57:46;10.60;99.90
20759;DHT22;10539;53.686;9.158;2023-05-07T01:00:12;10.60;99.90
20759;DHT22;10539;53.686;9.158;2023-05-07T01:02:39;10.60;99.90
20759;DHT22;10539;53.686;9.158;2023-05-07T01:05:05;10.60;99.90
20759;DHT22;10539;53.686;9.158;2023-05-07T01:07:33;10.60;99.90
20759;DHT22;10539;53.686;9.158;2023-05-07T01:10:00;10.70;99.90
20759;DHT22;10539;53.686;9.158;2023-05-07T01:12:27;10.70;99.90
20759;DHT22;10539;53.686;9.158;2023-05-07T01:14:53;10.60;99.90
20759;DHT22;10539;53.686;9.158;2023-05-07T01:17:21;10.60;99.90
20759;DHT22;10539;53.686;9.158;2023-05-07T01:19:46;10.70;99.90
20759;DHT22;10539;53.686;9.158;2023-05-07T01:22:15;10.70;99.90
20759;DHT22;10539;53.686;9.158;2023-05-07T01:24:42;10.60;99.90
20759;DHT22;10539;53.686;9.158;2023-05-07T01:27:08;10.60;99.90
20759;DHT22;10539;53.686;9.158;2023-05-07T01:29:34;10.60;99.90
20759;DHT22;10539;53.686;9.158;2023-05-07T01:32:00;10.60;99.90
20759;DHT22;10539;53.686;9.158;2023-05-07T01:34:32;10.60;99.90
20759;DHT22;10539;53.686;9.158;2023-05-07T01:36:58;10.60;99.90
20759;DHT22;10539;53.686;9.158;2023-05-07T01:39:26;10.60;99.90
20759;DHT22;10539;53.686;9.158;2023-05-07T01:41:56;10.60;99.90
20759;DHT22;10539;53.686;9.158;2023-05-07T01:44:23;10.60;99.90
20759;DHT22;10539;53.686;9.158;2023-05-07T01:46:49;10.50;99.90
20759;DHT22;10539;53.686;9.158;2023-05-07T01:49:16;10.50;99.90
20759;DHT22;10539;53.686;9.158;2023-05-07T01:51:42;10.50;99.90
20759;DHT22;10539;53.686;9.158;2023-05-07T01:54:08;10.60;99.90
20759;DHT22;10539;53.686;9.158;2023-05-07T01:56:34;10.60;99.90
20759;DHT22;10539;53.686;9.158;2023-05-07T01:59:00;10.60;99.90
20759;DHT22;10539;53.686;9.158;2023-05-07T02:01:27;10.50;99.90
20759;DHT22;10539;53.686;9.158;2023-05-07T02:03:53;10.50;99.90
20759;DHT22;10539;53.686;9.158;2023-05-07T02:06:19;10.50;99.90
20759;DHT22;10539;53.686;9.158;2023-05-07T02:08:45;10.50;99.90
20759;DHT22;10539;53.686;9.158;2023-05-07T02:11:11;10.50;99.90
20759;DHT22;10539;53.686;9.158;2023-05-07T02:13:37;10.50;99.90
20759;DHT22;10539;53.686;9.158;2023-05-07T02:16:03;10.50;99.90
20759;DHT22;10539;53.686;9.158;2023-05-07T02:18:29;10.50;99.90
20759;DHT22;10539;53.686;9.158;2023-05-07T02:20:54;10.50;99.90
20759;DHT22;10539;53.686;9.158;2023-05-07T02:23:20;10.50;99.90
20759;DHT22;10539;53.686;9.158;2023-05-07T02:25:46;10.50;99.90
20759;DHT22;10539;53.686;9.158;2023-05-07T02:28:12;10.50;99.90
20759;DHT22;10539;53.686;9.158;2023-05-07T02:30:38;10.50;99.90
20759;DHT22;10539;53.686;9.158;2023-05-07T02:33:04;10.50;99.90
20759;DHT22;10539;53.686;9.158;2023-05-07T02:35:29;10.50;99.90
20759;DHT22;10539;53.686;9.158;2023-05-07T02:37:55;10.50;99.90
20759;DHT22;10539;53.686;9.158;2023-05-07T02:40:21;10.50;99.90
20759;DHT22;10539;53.686;9.158;2023-05-07T02:42:47;10.50;99.90
20759;DHT22;10539;53.686;9.158;2023-05-07T02:45:12;10.50;99.90
20759;DHT22;10539;53.686;9.158;2023-05-07T02:47:38;10.50;99.90
20759;DHT22;10539;53.686;9.158;2023-05-07T02:50:04;10.50;99.90
20759;DHT22;10539;53.686;9.158;2023-05-07T02:52:30;10.50;99.90
20759;DHT22;10539;53.686;9.158;2023-05-07T02:54:56;10.50;99.90
20759;DHT22;10539;53.686;9.158;2023-05-07T02:57:21;10.50;99.90
20759;DHT22;10539;53.686;9.158;2023-05-07T02:59:47;10.50;99.90
20759;DHT22;10539;53.686;9.158;2023-05-07T03:02:12;10.40;99.90
20759;DHT22;10539;53.686;9.158;2023-05-07T03:04:39;10.40;99.90
20759;DHT22;10539;53.686;9.158;2023-05-07T03:07:05;10.50;99.90
20759;DHT22;10539;53.686;9.158;2023-05-07T03:09:31;10.40;99.90
20759;DHT22;10539;53.686;9.158;2023-05-07T03:11:57;10.40;99.90
20759;DHT22;10539;53.686;9.158;2023-05-07T03:14:22;10.40;99.90
20759;DHT22;10539;53.686;9.158;2023-05-07T03:16:49;10.40;99.90
20759;DHT22;10539;53.686;9.158;2023-05-07T03:19:15;10.50;99.90
20759;DHT22;10539;53.686;9.158;2023-05-07T03:21:40;10.50;99.90
20759;DHT22;10539;53.686;9.158;2023-05-07T03:24:06;10.50;99.90
20759;DHT22;10539;53.686;9.158;2023-05-07T03:26:32;10.50;99.90
20759;DHT22;10539;53.686;9.158;2023-05-07T03:28:58;10.50;99.90
20759;DHT22;10539;53.686;9.158;2023-05-07T03:31:24;10.50;99.90
20759;DHT22;10539;53.686;9.158;2023-05-07T03:33:55;10.50;99.90
20759;DHT22;10539;53.686;9.158;2023-05-07T03:36:22;10.50;99.90
20759;DHT22;10539;53.686;9.158;2023-05-07T03:38:48;10.50;99.90
20759;DHT22;10539;53.686;9.158;2023-05-07T03:41:14;10.50;99.90
20759;DHT22;10539;53.686;9.158;2023-05-07T03:43:40;10.50;99.90
20759;DHT22;10539;53.686;9.158;2023-05-07T03:46:06;10.50;99.90
20759;DHT22;10539;53.686;9.158;2023-05-07T03:48:40;10.50;99.90
20759;DHT22;10539;53.686;9.158;2023-05-07T03:51:09;10.50;99.90
20759;DHT22;10539;53.686;9.158;2023-05-07T03:53:35;10.40;99.90
20759;DHT22;10539;53.686;9.158;2023-05-07T03:56:00;10.40;99.90
20759;DHT22;10539;53.686;9.158;2023-05-07T03:58:26;10.40;99.90
20759;DHT22;10539;53.686;9.158;2023-05-07T04:00:52;10.40;99.90
20759;DHT22;10539;53.686;9.158;2023-05-07T04:03:17;10.40;99.90
20759;DHT22;10539;53.686;9.158;2023-05-07T04:05:43;10.40;99.90
20759;DHT22;10539;53.686;9.158;2023-05-07T04:08:15;10.40;99.90
20759;DHT22;10539;53.686;9.158;2023-05-07T04:10:41;10.40;99.90
20759;DHT22;10539;53.686;9.158;2023-05-07T04:13:06;10.40;99.90
20759;DHT22;10539;53.686;9.158;2023-05-07T04:15:32;10.40;99.90
20759;DHT22;10539;53.686;9.158;2023-05-07T04:18:00;10.50;99.90
20759;DHT22;10539;53.686;9.158;2023-05-07T04:20:25;10.50;99.90
20759;DHT22;10539;53.686;9.158;2023-05-07T04:22:51;10.50;99.90
20759;DHT22;10539;53.686;9.158;2023-05-07T04:25:17;10.50;99.90
20759;DHT22;10539;53.686;9.158;2023-05-07T04:27:43;10.50;99.90
20759;DHT22;10539;53.686;9.158;2023-05-07T04:30:09;10.50;99.90
20759;DHT22;10539;53.686;9.158;2023-05-07T04:32:36;10.50;99.90
20759;DHT22;10539;53.686;9.158;2023-05-07T04:35:03;10.50;99.90
20759;DHT22;10539;53.686;9.158;2023-05-07T04:37:29;10.50;99.90
20759;DHT22;10539;53.686;9.158;2023-05-07T04:39:56;10.50;99.90
20759;DHT22;10539;53.686;9.158;2023-05-07T04:42:22;10.50;99.90
20759;DHT22;10539;53.686;9.158;2023-05-07T04:44:53;10.50;99.90
20759;DHT22;10539;53.686;9.158;2023-05-07T04:47:19;10.40;99.90
20759;DHT22;10539;53.686;9.158;2023-05-07T04:49:44;10.40;99.90
20759;DHT22;10539;53.686;9.158;2023-05-07T04:52:10;10.40;99.90
20759;DHT22;10539;53.686;9.158;2023-05-07T04:54:36;10.40;99.90
20759;DHT22;10539;53.686;9.158;2023-05-07T04:57:03;10.40;99.90
20759;DHT22;10539;53.686;9.158;2023-05-07T04:59:30;10.40;99.90
20759;DHT22;10539;53.686;9.158;2023-05-07T05:01:55;10.40;99.90
20759;DHT22;10539;53.686;9.158;2023-05-07T05:04:21;10.40;99.90
20759;DHT22;10539;53.686;9.158;2023-05-07T05:06:50;10.40;99.90
20759;DHT22;10539;53.686;9.158;2023-05-07T05:09:16;10.40;99.90
20759;DHT22;10539;53.686;9.158;2023-05-07T05:11:42;10.40;99.90
20759;DHT22;10539;53.686;9.158;2023-05-07T05:14:08;10.40;99.90
20759;DHT22;10539;53.686;9.158;2023-05-07T05:16:38;10.50;99.90
20759;DHT22;10539;53.686;9.158;2023-05-07T05:19:04;10.50;99.90
20759;DHT22;10539;53.686;9.158;2023-05-07T05:21:31;10.40;99.90
20759;DHT22;10539;53.686;9.158;2023-05-07T05:23:59;10.40;99.90
20759;DHT22;10539;53.686;9.158;2023-05-07T05:26:25;10.40;99.90
20759;DHT22;10539;53.686;9.158;2023-05-07T05:28:52;10.40;99.90
20759;DHT22;10539;53.686;9.158;2023-05-07T05:31:20;10.50;99.90
20759;DHT22;10539;53.686;9.158;2023-05-07T05:33:46;10.50;99.90
20759;DHT22;10539;53.686;9.158;2023-05-07T05:36:13;10.50;99.90
20759;DHT22;10539;53.686;9.158;2023-05-07T05:38:45;10.40;99.90
20759;DHT22;10539;53.686;9.158;2023-05-07T05:41:14;10.50;99.90
20759;DHT22;10539;53.686;9.158;2023-05-07T05:43:43;10.50;99.90
20759;DHT22;10539;53.686;9.158;2023-05-07T05:46:11;10.50;99.90
20759;DHT22;10539;53.686;9.158;2023-05-07T05:48:42;10.50;99.90
20759;DHT22;10539;53.686;9.158;2023-05-07T05:51:14;10.60;99.90
20759;DHT22;10539;53.686;9.158;2023-05-07T05:53:40;10.60;99.90
20759;DHT22;10539;53.686;9.158;2023-05-07T05:56:06;10.60;99.90
20759;DHT22;10539;53.686;9.158;2023-05-07T05:58:35;10.60;99.90
20759;DHT22;10539;53.686;9.158;2023-05-07T06:01:03;10.70;99.90
20759;DHT22;10539;53.686;9.158;2023-05-07T06:03:30;10.70;99.90
20759;DHT22;10539;53.686;9.158;2023-05-07T06:05:58;10.70;99.90
20759;DHT22;10539;53.686;9.158;2023-05-07T06:08:29;10.70;99.90
20759;DHT22;10539;53.686;9.158;2023-05-07T06:10:59;10.70;99.90
20759;DHT22;10539;53.686;9.158;2023-05-07T06:13:26;10.70;99.90
20759;DHT22;10539;53.686;9.158;2023-05-07T06:15:51;10.70;99.90
20759;DHT22;10539;53.686;9.158;2023-05-07T06:18:17;10.80;99.90
20759;DHT22;10539;53.686;9.158;2023-05-07T06:20:43;10.80;99.90
20759;DHT22;10539;53.686;9.158;2023-05-07T06:23:09;10.80;99.90
20759;DHT22;10539;53.686;9.158;2023-05-07T06:25:35;10.80;99.90
20759;DHT22;10539;53.686;9.158;2023-05-07T06:28:00;10.80;99.90
20759;DHT22;10539;53.686;9.158;2023-05-07T06:30:26;10.90;99.90
20759;DHT22;10539;53.686;9.158;2023-05-07T06:32:52;10.90;99.90
20759;DHT22;10539;53.686;9.158;2023-05-07T06:35:18;10.90;99.90
20759;DHT22;10539;53.686;9.158;2023-05-07T06:37:44;10.90;99.90
20759;DHT22;10539;53.686;9.158;2023-05-07T06:40:10;10.90;99.90
20759;DHT22;10539;53.686;9.158;2023-05-07T06:42:36;10.90;99.90
20759;DHT22;10539;53.686;9.158;2023-05-07T06:45:03;10.90;99.90
20759;DHT22;10539;53.686;9.158;2023-05-07T06:47:29;10.90;99.90
20759;DHT22;10539;53.686;9.158;2023-05-07T06:49:55;10.90;99.90
20759;DHT22;10539;53.686;9.158;2023-05-07T06:52:20;10.90;99.90
20759;DHT22;10539;53.686;9.158;2023-05-07T06:54:46;11.00;99.90
20759;DHT22;10539;53.686;9.158;2023-05-07T06:57:12;11.00;99.90
20759;DHT22;10539;53.686;9.158;2023-05-07T06:59:38;11.00;99.90
20759;DHT22;10539;53.686;9.158;2023-05-07T07:02:03;11.00;99.90
20759;DHT22;10539;53.686;9.158;2023-05-07T07:04:29;11.00;99.90
20759;DHT22;10539;53.686;9.158;2023-05-07T07:06:55;11.00;99.90
20759;DHT22;10539;53.686;9.158;2023-05-07T07:09:22;11.00;99.90
20759;DHT22;10539;53.686;9.158;2023-05-07T07:11:48;11.00;99.90
20759;DHT22;10539;53.686;9.158;2023-05-07T07:14:13;11.00;99.90
20759;DHT22;10539;53.686;9.158;2023-05-07T07:16:39;11.10;99.90
20759;DHT22;10539;53.686;9.158;2023-05-07T07:19:05;11.20;99.90
20759;DHT22;10539;53.686;9.158;2023-05-07T07:21:31;11.20;99.90
20759;DHT22;10539;53.686;9.158;2023-05-07T07:23:57;11.20;99.90
20759;DHT22;10539;53.686;9.158;2023-05-07T07:26:23;11.10;99.90
20759;DHT22;10539;53.686;9.158;2023-05-07T07:28:48;11.10;99.90
20759;DHT22;10539;53.686;9.158;2023-05-07T07:31:14;11.10;99.90
20759;DHT22;10539;53.686;9.158;2023-05-07T07:33:40;11.10;99.90
20759;DHT22;10539;53.686;9.158;2023-05-07T07:36:06;11.10;99.90
20759;DHT22;10539;53.686;9.158;2023-05-07T07:38:32;11.10;99.90
20759;DHT22;10539;53.686;9.158;2023-05-07T07:40:58;11.10;99.90
20759;DHT22;10539;53.686;9.158;2023-05-07T07:43:24;11.20;99.90
20759;DHT22;10539;53.686;9.158;2023-05-07T07:45:50;11.10;99.90
20759;DHT22;10539;53.686;9.158;2023-05-07T07:48:15;11.10;99.90
20759;DHT22;10539;53.686;9.158;2023-05-07T07:50:41;11.20;99.90
20759;DHT22;10539;53.686;9.158;2023-05-07T07:53:07;11.20;99.90
20759;DHT22;10539;53.686;9.158;2023-05-07T07:55:32;11.20;99.90
20759;DHT22;10539;53.686;9.158;2023-05-07T07:58:03;11.30;99.90
20759;DHT22;10539;53.686;9.158;2023-05-07T08:00:28;11.30;99.90
20759;DHT22;10539;53.686;9.158;2023-05-07T08:02:54;11.30;99.90
20759;DHT22;10539;53.686;9.158;2023-05-07T08:05:20;11.40;99.90
20759;DHT22;10539;53.686;9.158;2023-05-07T08:07:45;11.50;99.90
20759;DHT22;10539;53.686;9.158;2023-05-07T08:10:17;11.60;99.90
20759;DHT22;10539;53.686;9.158;2023-05-07T08:12:48;11.70;99.90
20759;DHT22;10539;53.686;9.158;2023-05-07T08:15:14;11.80;99.90
20759;DHT22;10539;53.686;9.158;2023-05-07T08:17:40;11.80;99.90
20759;DHT22;10539;53.686;9.158;2023-05-07T08:20:06;11.90;99.90
20759;DHT22;10539;53.686;9.158;2023-05-07T08:22:32;12.00;99.90
20759;DHT22;10539;53.686;9.158;2023-05-07T08:24:58;12.00;99.90
20759;DHT22;10539;53.686;9.158;2023-05-07T08:27:25;12.10;99.90
20759;DHT22;10539;53.686;9.158;2023-05-07T08:29:50;12.10;99.90
20759;DHT22;10539;53.686;9.158;2023-05-07T08:32:16;12.10;99.90
20759;DHT22;10539;53.686;9.158;2023-05-07T08:34:42;12.10;99.90
20759;DHT22;10539;53.686;9.158;2023-05-07T08:37:07;12.10;99.90
20759;DHT22;10539;53.686;9.158;2023-05-07T08:39:33;12.00;99.90
20759;DHT22;10539;53.686;9.158;2023-05-07T08:42:00;12.00;99.90
20759;DHT22;10539;53.686;9.158;2023-05-07T08:44:33;12.00;99.90
20759;DHT22;10539;53.686;9.158;2023-05-07T08:47:01;12.00;99.90
20759;DHT22;10539;53.686;9.158;2023-05-07T08:49:27;12.00;99.90
20759;DHT22;10539;53.686;9.158;2023-05-07T08:51:54;12.10;99.90
20759;DHT22;10539;53.686;9.158;2023-05-07T08:54:21;12.10;99.90
20759;DHT22;10539;53.686;9.158;2023-05-07T08:56:47;12.20;99.90
20759;DHT22;10539;53.686;9.158;2023-05-07T08:59:13;12.40;99.90
20759;DHT22;10539;53.686;9.158;2023-05-07T09:01:39;12.40;99.90
20759;DHT22;10539;53.686;9.158;2023-05-07T09:04:05;12.50;99.90
20759;DHT22;10539;53.686;9.158;2023-05-07T09:06:32;12.50;99.90
20759;DHT22;10539;53.686;9.158;2023-05-07T09:08:58;12.50;99.90
20759;DHT22;10539;53.686;9.158;2023-05-07T09:11:26;12.60;99.90
20759;DHT22;10539;53.686;9.158;2023-05-07T09:13:57;12.60;99.90
20759;DHT22;10539;53.686;9.158;2023-05-07T09:16:24;12.70;99.90
20759;DHT22;10539;53.686;9.158;2023-05-07T09:18:54;12.80;99.90
20759;DHT22;10539;53.686;9.158;2023-05-07T09:21:20;12.90;99.90
20759;DHT22;10539;53.686;9.158;2023-05-07T09:23:55;13.00;99.90
20759;DHT22;10539;53.686;9.158;2023-05-07T09:26:22;13.10;99.90
20759;DHT22;10539;53.686;9.158;2023-05-07T09:28:48;13.10;99.90
20759;DHT22;10539;53.686;9.158;2023-05-07T09:31:14;13.20;99.90
20759;DHT22;10539;53.686;9.158;2023-05-07T09:33:40;13.30;99.90
20759;DHT22;10539;53.686;9.158;2023-05-07T09:36:07;13.40;99.90
20759;DHT22;10539;53.686;9.158;2023-05-07T09:38:34;13.50;99.90
20759;DHT22;10539;53.686;9.158;2023-05-07T09:41:11;13.60;99.90
20759;DHT22;10539;53.686;9.158;2023-05-07T09:43:39;13.60;99.90
20759;DHT22;10539;53.686;9.158;2023-05-07T09:46:14;13.50;99.90
20759;DHT22;10539;53.686;9.158;2023-05-07T09:48:42;13.50;99.90
20759;DHT22;10539;53.686;9.158;2023-05-07T09:51:56;13.60;99.90
20759;DHT22;10539;53.686;9.158;2023-05-07T09:53:58;13.60;99.90
20759;DHT22;10539;53.686;9.158;2023-05-07T09:56:26;13.60;99.90
20759;DHT22;10539;53.686;9.158;2023-05-07T09:58:54;13.60;99.90
20759;DHT22;10539;53.686;9.158;2023-05-07T10:01:21;13.70;99.90
20759;DHT22;10539;53.686;9.158;2023-05-07T10:03:49;13.70;99.90
20759;DHT22;10539;53.686;9.158;2023-05-07T10:06:15;13.80;99.90
20759;DHT22;10539;53.686;9.158;2023-05-07T10:08:42;13.80;99.90
20759;DHT22;10539;53.686;9.158;2023-05-07T10:11:09;13.90;99.90
20759;DHT22;10539;53.686;9.158;2023-05-07T10:13:35;13.90;99.90
20759;DHT22;10539;53.686;9.158;2023-05-07T10:16:04;13.90;99.90
20759;DHT22;10539;53.686;9.158;2023-05-07T10:18:31;13.90;99.90
20759;DHT22;10539;53.686;9.158;2023-05-07T10:21:07;13.90;99.90
20759;DHT22;10539;53.686;9.158;2023-05-07T10:23:33;13.90;99.90
20759;DHT22;10539;53.686;9.158;2023-05-07T10:26:05;13.90;99.90
20759;DHT22;10539;53.686;9.158;2023-05-07T10:28:40;13.90;99.90
20759;DHT22;10539;53.686;9.158;2023-05-07T10:33:55;14.00;99.90
20759;DHT22;10539;53.686;9.158;2023-05-07T10:36:22;14.00;99.90
20759;DHT22;10539;53.686;9.158;2023-05-07T10:38:49;13.90;99.90
20759;DHT22;10539;53.686;9.158;2023-05-07T10:41:15;13.90;99.90
20759;DHT22;10539;53.686;9.158;2023-05-07T10:43:44;13.90;99.90
20759;DHT22;10539;53.686;9.158;2023-05-07T10:46:21;14.00;99.90
20759;DHT22;10539;53.686;9.158;2023-05-07T10:51:30;14.00;99.90
20759;DHT22;10539;53.686;9.158;2023-05-07T10:56:34;14.20;99.90
20759;DHT22;10539;53.686;9.158;2023-05-07T10:59:30;14.20;99.90
20759;DHT22;10539;53.686;9.158;2023-05-07T11:02:01;14.20;99.90
20759;DHT22;10539;53.686;9.158;2023-05-07T11:04:32;14.20;99.90
20759;DHT22;10539;53.686;9.158;2023-05-07T11:13:02;14.40;99.90
20759;DHT22;10539;53.686;9.158;2023-05-07T11:15:08;14.40;99.90
20759;DHT22;10539;53.686;9.158;2023-05-07T11:17:35;14.30;99.90
20759;DHT22;10539;53.686;9.158;2023-05-07T11:20:17;14.30;99.90
20759;DHT22;10539;53.686;9.158;2023-05-07T11:22:43;14.30;99.90
20759;DHT22;10539;53.686;9.158;2023-05-07T11:25:08;14.30;99.90
20759;DHT22;10539;53.686;9.158;2023-05-07T11:27:34;14.30;99.90
20759;DHT22;10539;53.686;9.158;2023-05-07T11:30:00;14.30;99.90
20759;DHT22;10539;53.686;9.158;2023-05-07T11:32:30;14.40;99.90
20759;DHT22;10539;53.686;9.158;2023-05-07T11:34:59;14.40;99.90
20759;DHT22;10539;53.686;9.158;2023-05-07T11:37:26;14.40;99.90
20759;DHT22;10539;53.686;9.158;2023-05-07T11:40:07;14.50;99.90
20759;DHT22;10539;53.686;9.158;2023-05-07T11:42:34;14.50;99.90
20759;DHT22;10539;53.686;9.158;2023-05-07T11:45:01;14.60;99.90
20759;DHT22;10539;53.686;9.158;2023-05-07T11:47:30;14.60;99.90
20759;DHT22;10539;53.686;9.158;2023-05-07T11:49:56;14.60;99.90
20759;DHT22;10539;53.686;9.158;2023-05-07T11:52:23;14.60;99.90
20759;DHT22;10539;53.686;9.158;2023-05-07T11:54:50;14.50;99.90
20759;DHT22;10539;53.686;9.158;2023-05-07T11:57:16;14.50;99.90
20759;DHT22;10539;53.686;9.158;2023-05-07T11:59:42;14.50;99.90
20759;DHT22;10539;53.686;9.158;2023-05-07T12:02:10;14.50;99.90
20759;DHT22;10539;53.686;9.158;2023-05-07T12:04:37;14.60;99.90
20759;DHT22;10539;53.686;9.158;2023-05-07T12:07:04;14.60;99.90
20759;DHT22;10539;53.686;9.158;2023-05-07T12:09:32;14.70;99.90
20759;DHT22;10539;53.686;9.158;2023-05-07T12:12:03;14.70;99.90
20759;DHT22;10539;53.686;9.158;2023-05-07T12:14:29;14.70;99.90
20759;DHT22;10539;53.686;9.158;2023-05-07T12:16:56;14.70;99.90
20759;DHT22;10539;53.686;9.158;2023-05-07T12:19:22;14.80;99.90
20759;DHT22;10539;53.686;9.158;2023-05-07T12:21:48;14.90;99.90
20759;DHT22;10539;53.686;9.158;2023-05-07T12:24:17;14.90;99.90
20759;DHT22;10539;53.686;9.158;2023-05-07T12:26:43;14.90;99.90
20759;DHT22;10539;53.686;9.158;2023-05-07T12:29:09;14.90;99.90
20759;DHT22;10539;53.686;9.158;2023-05-07T12:31:35;14.90;99.90
20759;DHT22;10539;53.686;9.158;2023-05-07T12:34:02;14.90;99.90
20759;DHT22;10539;53.686;9.158;2023-05-07T12:36:39;14.90;99.90
20759;DHT22;10539;53.686;9.158;2023-05-07T12:39:09;14.90;99.90
20759;DHT22;10539;53.686;9.158;2023-05-07T12:41:54;15.00;99.90
20759;DHT22;10539;53.686;9.158;2023-05-07T12:44:24;15.10;99.90
20759;DHT22;10539;53.686;9.158;2023-05-07T12:46:51;15.10;99.90
20759;DHT22;10539;53.686;9.158;2023-05-07T12:49:17;15.20;99.90
20759;DHT22;10539;53.686;9.158;2023-05-07T12:51:47;15.20;99.90
20759;DHT22;10539;53.686;9.158;2023-05-07T12:54:37;15.30;99.90
20759;DHT22;10539;53.686;9.158;2023-05-07T12:57:05;15.30;99.90
20759;DHT22;10539;53.686;9.158;2023-05-07T12:59:41;15.30;99.90
20759;DHT22;10539;53.686;9.158;2023-05-07T13:02:08;15.30;99.90
20759;DHT22;10539;53.686;9.158;2023-05-07T13:04:34;15.30;99.90
20759;DHT22;10539;53.686;9.158;2023-05-07T13:07:00;15.30;99.90
20759;DHT22;10539;53.686;9.158;2023-05-07T13:09:26;15.30;99.90
20759;DHT22;10539;53.686;9.158;2023-05-07T13:11:54;15.20;99.90
20759;DHT22;10539;53.686;9.158;2023-05-07T13:14:20;15.10;99.90
20759;DHT22;10539;53.686;9.158;2023-05-07T13:16:48;15.00;99.90
20759;DHT22;10539;53.686;9.158;2023-05-07T13:19:14;15.00;99.90
20759;DHT22;10539;53.686;9.158;2023-05-07T13:21:40;15.00;99.90
20759;DHT22;10539;53.686;9.158;2023-05-07T13:24:06;15.10;99.90
20759;DHT22;10539;53.686;9.158;2023-05-07T13:26:32;15.10;99.90
20759;DHT22;10539;53.686;9.158;2023-05-07T13:28:58;15.10;99.90
20759;DHT22;10539;53.686;9.158;2023-05-07T13:31:24;15.10;99.90
20759;DHT22;10539;53.686;9.158;2023-05-07T13:33:50;15.10;99.90
20759;DHT22;10539;53.686;9.158;2023-05-07T13:36:16;15.20;99.90
20759;DHT22;10539;53.686;9.158;2023-05-07T13:38:41;15.20;99.90
20759;DHT22;10539;53.686;9.158;2023-05-07T13:41:07;15.30;99.90
20759;DHT22;10539;53.686;9.158;2023-05-07T13:43:33;15.30;99.90
20759;DHT22;10539;53.686;9.158;2023-05-07T13:45:59;15.30;99.90
20759;DHT22;10539;53.686;9.158;2023-05-07T13:48:25;15.30;99.90
20759;DHT22;10539;53.686;9.158;2023-05-07T13:50:51;15.40;99.90
20759;DHT22;10539;53.686;9.158;2023-05-07T13:53:17;15.50;99.90
20759;DHT22;10539;53.686;9.158;2023-05-07T13:55:44;15.50;99.90
20759;DHT22;10539;53.686;9.158;2023-05-07T13:58:10;15.50;99.90
20759;DHT22;10539;53.686;9.158;2023-05-07T14:00:36;15.50;99.90
20759;DHT22;10539;53.686;9.158;2023-05-07T14:03:02;15.50;99.90
20759;DHT22;10539;53.686;9.158;2023-05-07T14:05:28;15.60;99.90
20759;DHT22;10539;53.686;9.158;2023-05-07T14:07:55;15.60;99.90
20759;DHT22;10539;53.686;9.158;2023-05-07T14:10:22;15.60;99.90
20759;DHT22;10539;53.686;9.158;2023-05-07T14:12:47;15.70;99.90
20759;DHT22;10539;53.686;9.158;2023-05-07T14:15:13;15.70;99.90
20759;DHT22;10539;53.686;9.158;2023-05-07T14:17:39;15.70;99.90
20759;DHT22;10539;53.686;9.158;2023-05-07T14:20:05;15.70;99.90
20759;DHT22;10539;53.686;9.158;2023-05-07T14:22:34;15.70;99.90
20759;DHT22;10539;53.686;9.158;2023-05-07T14:25:00;15.70;99.90
20759;DHT22;10539;53.686;9.158;2023-05-07T14:27:26;15.70;99.90
20759;DHT22;10539;53.686;9.158;2023-05-07T14:29:51;15.70;99.90
20759;DHT22;10539;53.686;9.158;2023-05-07T14:32:18;15.70;99.90
20759;DHT22;10539;53.686;9.158;2023-05-07T14:34:44;15.60;99.90
20759;DHT22;10539;53.686;9.158;2023-05-07T14:37:10;15.60;99.90
20759;DHT22;10539;53.686;9.158;2023-05-07T14:39:36;15.60;99.90
20759;DHT22;10539;53.686;9.158;2023-05-07T14:42:02;15.70;99.90
20759;DHT22;10539;53.686;9.158;2023-05-07T14:44:28;15.60;99.90
20759;DHT22;10539;53.686;9.158;2023-05-07T14:46:54;15.70;99.90
20759;DHT22;10539;53.686;9.158;2023-05-07T14:49:20;15.70;99.90
20759;DHT22;10539;53.686;9.158;2023-05-07T14:51:46;15.80;99.90
20759;DHT22;10539;53.686;9.158;2023-05-07T14:54:13;15.80;99.90
20759;DHT22;10539;53.686;9.158;2023-05-07T14:56:39;15.80;99.90
20759;DHT22;10539;53.686;9.158;2023-05-07T14:59:05;15.80;99.90
20759;DHT22;10539;53.686;9.158;2023-05-07T15:01:31;15.80;99.90
20759;DHT22;10539;53.686;9.158;2023-05-07T15:03:57;15.80;99.90
20759;DHT22;10539;53.686;9.158;2023-05-07T15:06:23;15.90;99.90
20759;DHT22;10539;53.686;9.158;2023-05-07T15:08:49;16.00;99.90
20759;DHT22;10539;53.686;9.158;2023-05-07T15:11:15;16.00;99.90
20759;DHT22;10539;53.686;9.158;2023-05-07T15:13:42;16.10;99.90
20759;DHT22;10539;53.686;9.158;2023-05-07T15:16:08;16.10;99.90
20759;DHT22;10539;53.686;9.158;2023-05-07T15:18:33;16.10;99.90
20759;DHT22;10539;53.686;9.158;2023-05-07T15:20:59;16.20;99.90
20759;DHT22;10539;53.686;9.158;2023-05-07T15:23:25;16.30;99.90
20759;DHT22;10539;53.686;9.158;2023-05-07T15:25:52;16.30;99.90
20759;DHT22;10539;53.686;9.158;2023-05-07T15:28:18;16.30;99.90
20759;DHT22;10539;53.686;9.158;2023-05-07T15:30:44;16.30;99.90
20759;DHT22;10539;53.686;9.158;2023-05-07T15:33:09;16.30;99.90
20759;DHT22;10539;53.686;9.158;2023-05-07T15:35:36;16.40;99.90
20759;DHT22;10539;53.686;9.158;2023-05-07T15:38:02;16.40;99.90
20759;DHT22;10539;53.686;9.158;2023-05-07T15:40:29;16.40;99.90
20759;DHT22;10539;53.686;9.158;2023-05-07T15:42:55;16.40;99.90